Time;durP1;ratioP1;P1;durP2;ratioP2;P2;SDS_P1;SDS_P2;PMS_P1;PMS_P2;Temp;Humidity;BMP_temperature;BMP_pressure;BME280_temperature;BME280_humidity;BME280_pressure;Samples;Min_cycle;Max_cycle;Signal;HPM_P1;HPM_P2
2023/02/19 00:02:02;;;;;;;7.87;3.60;;;17.40;70.00;;;;;;5065572;28;20271;-49
2023/02/19 00:04:33;;;;;;;4.00;3.60;;;17.40;70.10;;;;;;5062937;28;20217;-49
2023/02/19 00:07:06;;;;;;;4.90;3.70;;;17.40;69.80;;;;;;5063888;28;20223;-49
2023/02/19 00:09:34;;;;;;;4.80;3.80;;;17.40;70.10;;;;;;5068225;28;20194;-49
2023/02/19 00:12:06;;;;;;;4.70;3.60;;;17.40;70.10;;;;;;5068389;28;20192;-49
2023/02/19 00:14:38;;;;;;;4.60;3.40;;;17.40;70.10;;;;;;5040340;28;20194;-49
2023/02/19 00:17:08;;;;;;;3.97;3.57;;;17.40;70.00;;;;;;5056200;28;20224;-49
2023/02/19 00:19:37;;;;;;;3.97;3.43;;;17.40;70.00;;;;;;5065471;28;20218;-49
2023/02/19 00:22:06;;;;;;;4.17;3.70;;;17.30;70.00;;;;;;5068660;28;20225;-49
2023/02/19 00:24:37;;;;;;;3.90;3.50;;;17.30;69.90;;;;;;5068563;28;20641;-49
2023/02/19 00:27:08;;;;;;;4.90;3.97;;;17.40;70.00;;;;;;5072945;28;20534;-49
2023/02/19 00:29:40;;;;;;;4.50;3.83;;;17.30;69.80;;;;;;5068065;28;20220;-49
2023/02/19 00:32:10;;;;;;;6.60;3.90;;;17.30;69.70;;;;;;5072186;28;20198;-49
2023/02/19 00:34:40;;;;;;;4.87;3.50;;;17.30;70.00;;;;;;5072285;28;20186;-49
2023/02/19 00:37:14;;;;;;;4.43;3.83;;;17.30;69.70;;;;;;5054863;28;20205;-49
2023/02/19 00:39:46;;;;;;;3.40;3.10;;;17.30;69.80;;;;;;5066309;28;20214;-49
2023/02/19 00:42:18;;;;;;;5.90;3.80;;;17.30;69.60;;;;;;5074575;28;20194;-49
2023/02/19 00:44:47;;;;;;;4.57;3.83;;;17.30;70.00;;;;;;5072130;28;20197;-49
2023/02/19 00:47:19;;;;;;;5.17;4.00;;;17.30;69.70;;;;;;5074029;28;20276;-49
2023/02/19 00:49:50;;;;;;;5.10;3.33;;;17.30;69.90;;;;;;5069620;28;20608;-49
2023/02/19 00:52:20;;;;;;;4.20;3.70;;;17.30;69.80;;;;;;5069589;28;20217;-49
2023/02/19 00:54:48;;;;;;;6.70;3.80;;;17.30;69.80;;;;;;5071891;28;20358;-49
2023/02/19 00:57:18;;;;;;;5.70;3.80;;;17.30;69.80;;;;;;5070365;28;20561;-49
2023/02/19 00:59:50;;;;;;;4.33;3.83;;;17.30;69.70;;;;;;5062318;28;20314;-49
2023/02/19 01:02:22;;;;;;;4.70;3.70;;;17.30;69.60;;;;;;5071425;28;20194;-49
2023/02/19 01:04:55;;;;;;;6.40;4.17;;;17.30;69.60;;;;;;5069509;28;20207;-49
2023/02/19 01:07:24;;;;;;;6.23;4.13;;;17.30;69.50;;;;;;5071204;28;20190;-49
2023/02/19 01:09:54;;;;;;;6.30;3.97;;;17.30;69.50;;;;;;5065427;28;20782;-48
2023/02/19 01:12:24;;;;;;;5.00;4.50;;;17.30;69.40;;;;;;5075286;28;20194;-49
2023/02/19 01:14:55;;;;;;;4.87;4.37;;;17.30;69.40;;;;;;5072579;28;20209;-49
2023/02/19 01:17:25;;;;;;;4.20;3.80;;;17.30;69.30;;;;;;5068902;28;20209;-49
2023/02/19 01:19:57;;;;;;;6.73;4.17;;;17.30;69.30;;;;;;5070378;28;20225;-49
2023/02/19 01:22:26;;;;;;;6.27;4.33;;;17.30;69.20;;;;;;5070910;28;20217;-49
2023/02/19 01:24:56;;;;;;;5.90;4.30;;;17.30;69.30;;;;;;5067731;28;20194;-49
2023/02/19 01:27:27;;;;;;;5.43;4.10;;;17.30;69.30;;;;;;5070708;28;20198;-49
2023/02/19 01:29:58;;;;;;;5.40;4.40;;;17.30;69.20;;;;;;5063805;28;20214;-49
2023/02/19 01:32:29;;;;;;;5.97;4.47;;;17.30;69.20;;;;;;5071296;28;20202;-49
2023/02/19 01:34:59;;;;;;;8.37;3.93;;;17.20;69.10;;;;;;5067171;28;20210;-49
2023/02/19 01:37:31;;;;;;;5.63;3.77;;;17.30;69.20;;;;;;5063692;28;20210;-49
2023/02/19 01:40:02;;;;;;;4.43;3.70;;;17.30;69.20;;;;;;5065855;28;20485;-49
2023/02/19 01:42:32;;;;;;;4.40;4.00;;;17.30;69.00;;;;;;5053608;28;20201;-49
2023/02/19 01:45:31;;;;;;;4.50;3.97;;;17.20;69.10;;;;;;5071370;28;20189;-49
2023/02/19 01:48:21;;;;;;;6.00;4.10;;;17.30;69.10;;;;;;5050277;28;20189;-49
2023/02/19 01:50:57;;;;;;;6.37;4.07;;;17.30;68.90;;;;;;5059670;28;20192;-48
2023/02/19 01:53:43;;;;;;;4.30;3.90;;;17.30;68.80;;;;;;5039993;28;20777;-49
2023/02/19 01:56:16;;;;;;;4.27;3.57;;;17.20;68.80;;;;;;5070606;28;20190;-49
2023/02/19 01:58:49;;;;;;;4.10;3.60;;;17.20;68.70;;;;;;5055025;28;20225;-49
2023/02/19 02:01:22;;;;;;;4.47;3.70;;;17.30;68.70;;;;;;5053793;28;20580;-49
2023/02/19 02:03:53;;;;;;;5.63;3.90;;;17.20;68.70;;;;;;5042363;28;20611;-49
2023/02/19 02:06:38;;;;;;;6.47;3.83;;;17.20;68.50;;;;;;5053981;28;20210;-49
2023/02/19 02:12:04;;;;;;;4.50;3.40;;;17.20;68.60;;;;;;5036921;28;20209;-49
2023/02/19 02:14:37;;;;;;;6.83;3.60;;;17.30;68.50;;;;;;5069512;28;20208;-49
2023/02/19 02:17:39;;;;;;;4.23;3.50;;;17.20;68.60;;;;;;5050479;28;20221;-49
2023/02/19 02:20:30;;;;;;;3.70;2.87;;;17.30;68.50;;;;;;5047127;28;20213;-49
2023/02/19 02:23:40;;;;;;;6.63;3.60;;;17.20;68.50;;;;;;5086094;28;20216;-49
2023/02/19 02:26:53;;;;;;;5.13;3.10;;;17.20;68.40;;;;;;5069778;28;20204;-49
2023/02/19 02:29:51;;;;;;;5.60;3.53;;;17.20;68.40;;;;;;5086069;28;20558;-49
2023/02/19 02:32:52;;;;;;;4.13;2.97;;;17.20;68.30;;;;;;5078442;28;20291;-49
2023/02/19 02:35:33;;;;;;;4.77;2.80;;;17.20;68.40;;;;;;5070318;28;20204;-49
2023/02/19 02:38:11;;;;;;;5.00;3.13;;;17.20;68.40;;;;;;5083632;28;20646;-49
2023/02/19 02:40:54;;;;;;;3.20;2.57;;;17.20;68.40;;;;;;5085957;28;20232;-49
2023/02/19 02:43:25;;;;;;;3.97;2.97;;;17.20;68.40;;;;;;5071864;28;20201;-49
2023/02/19 02:45:55;;;;;;;4.17;2.60;;;17.20;68.30;;;;;;5086691;28;20189;-49
2023/02/19 02:48:38;;;;;;;4.27;2.70;;;17.20;68.30;;;;;;5089650;28;20196;-49
2023/02/19 02:51:31;;;;;;;2.63;2.40;;;17.20;68.20;;;;;;5089805;28;20197;-49
2023/02/19 02:57:31;;;;;;;5.10;2.87;;;17.20;68.10;;;;;;5071196;28;20195;-49
2023/02/19 03:00:00;;;;;;;6.00;2.80;;;17.20;68.10;;;;;;5070154;28;20241;-49
2023/02/19 03:02:32;;;;;;;3.57;2.43;;;17.20;68.10;;;;;;5071915;28;20200;-49
2023/02/19 03:08:38;;;;;;;3.40;2.20;;;17.20;68.00;;;;;;5082040;28;20204;-49
2023/02/19 03:20:13;;;;;;;3.17;2.33;;;17.20;67.90;;;;;;5075107;28;20197;-49
2023/02/19 03:22:46;;;;;;;4.13;2.50;;;17.20;67.90;;;;;;5028679;28;20228;-49
2023/02/19 03:28:18;;;;;;;3.83;2.77;;;17.20;67.90;;;;;;5052081;28;20202;-49
2023/02/19 03:30:54;;;;;;;3.63;2.03;;;17.20;67.90;;;;;;5050253;28;20603;-49
2023/02/19 03:33:27;;;;;;;3.83;2.10;;;17.20;67.80;;;;;;5051017;28;20635;-49
2023/02/19 03:36:01;;;;;;;3.57;1.80;;;17.20;67.80;;;;;;5049719;28;20200;-49
2023/02/19 03:38:57;;;;;;;5.23;2.47;;;17.20;67.70;;;;;;5051413;28;20198;-49
2023/02/19 03:41:52;;;;;;;3.87;2.30;;;17.20;67.60;;;;;;5048223;28;20213;-49
2023/02/19 03:44:42;;;;;;;4.83;2.27;;;17.10;67.60;;;;;;5068887;28;20629;-49
2023/02/19 03:48:04;;;;;;;5.70;2.37;;;17.10;67.60;;;;;;5078003;28;20197;-49
2023/02/19 03:51:02;;;;;;;6.73;2.17;;;17.10;67.50;;;;;;4973268;28;20271;-49
2023/02/19 03:53:48;;;;;;;5.30;2.30;;;17.10;67.50;;;;;;4983744;28;21072;-49
2023/02/19 03:56:30;;;;;;;5.93;2.30;;;17.20;67.60;;;;;;4985021;28;20239;-49
2023/02/19 03:59:31;;;;;;;3.13;1.80;;;17.10;67.50;;;;;;4971351;28;20208;-49
2023/02/19 04:02:07;;;;;;;5.17;1.90;;;17.10;67.40;;;;;;4984662;28;20250;-49
2023/02/19 04:04:42;;;;;;;4.83;2.43;;;17.10;67.60;;;;;;4974344;28;20213;-49
2023/02/19 04:07:13;;;;;;;3.57;2.20;;;17.20;67.60;;;;;;4987860;28;20199;-49
2023/02/19 04:09:47;;;;;;;3.77;2.03;;;17.10;67.50;;;;;;5078750;28;20208;-49
2023/02/19 04:12:30;;;;;;;3.30;1.77;;;17.20;67.50;;;;;;5056991;28;20229;-49
2023/02/19 04:15:10;;;;;;;3.33;1.80;;;17.10;67.40;;;;;;5063633;28;20204;-49
2023/02/19 04:17:58;;;;;;;4.47;2.23;;;17.10;67.40;;;;;;5066610;28;20217;-49
2023/02/19 04:20:38;;;;;;;4.77;1.70;;;17.10;67.40;;;;;;5072900;28;20225;-49
2023/02/19 04:23:11;;;;;;;3.43;1.80;;;17.10;67.30;;;;;;5076712;28;20185;-49
2023/02/19 04:25:44;;;;;;;4.00;2.23;;;17.10;67.40;;;;;;5073020;28;20501;-49
2023/02/19 04:28:25;;;;;;;3.43;1.70;;;17.10;67.40;;;;;;5087534;28;20241;-49
2023/02/19 04:30:56;;;;;;;5.10;2.03;;;17.20;67.40;;;;;;5076676;28;20200;-49
2023/02/19 04:33:25;;;;;;;2.50;1.30;;;17.10;67.30;;;;;;5094960;28;20197;-49
2023/02/19 04:35:56;;;;;;;3.77;1.97;;;17.10;67.30;;;;;;5075448;28;20189;-49
2023/02/19 04:38:28;;;;;;;3.23;1.93;;;17.10;67.20;;;;;;5097506;28;20193;-49
2023/02/19 04:40:59;;;;;;;5.07;1.80;;;17.10;67.20;;;;;;5063757;28;20224;-49
2023/02/19 04:43:30;;;;;;;5.87;1.70;;;17.10;67.20;;;;;;5094004;28;20205;-49
2023/02/19 04:46:03;;;;;;;4.00;1.80;;;17.10;67.20;;;;;;5093662;28;20200;-49
2023/02/19 04:48:35;;;;;;;4.07;1.70;;;17.10;67.10;;;;;;5082001;28;20529;-49
2023/02/19 04:51:06;;;;;;;4.00;1.50;;;17.10;67.20;;;;;;5092601;28;20211;-49
2023/02/19 04:53:35;;;;;;;4.10;1.93;;;17.10;67.10;;;;;;5074320;28;20274;-49
2023/02/19 04:56:12;;;;;;;4.00;1.70;;;17.10;67.10;;;;;;5093312;28;20212;-49
2023/02/19 04:58:41;;;;;;;4.67;1.83;;;17.10;67.10;;;;;;5070700;28;20189;-49
2023/02/19 05:01:30;;;;;;;3.60;1.53;;;17.10;67.10;;;;;;5094037;28;20219;-49
2023/02/19 05:04:09;;;;;;;4.00;2.00;;;17.10;67.00;;;;;;5087962;28;22471;-49
2023/02/19 05:06:38;;;;;;;3.13;1.53;;;17.10;67.10;;;;;;5085028;28;20185;-49
2023/02/19 05:09:10;;;;;;;4.00;1.50;;;17.10;67.10;;;;;;5092559;28;20201;-49
2023/02/19 05:11:40;;;;;;;3.00;1.57;;;17.10;67.00;;;;;;5091483;28;20629;-49
2023/02/19 05:14:08;;;;;;;3.83;1.67;;;17.10;67.00;;;;;;5092425;28;20197;-49
2023/02/19 05:16:38;;;;;;;3.87;1.60;;;17.10;67.00;;;;;;5070476;28;20247;-49
2023/02/19 05:19:12;;;;;;;4.60;1.90;;;17.10;67.00;;;;;;5090828;28;20204;-49
2023/02/19 05:21:42;;;;;;;4.07;1.70;;;17.10;67.10;;;;;;5072021;28;20232;-49
2023/02/19 05:24:14;;;;;;;5.73;1.80;;;17.10;67.00;;;;;;5090612;28;20618;-49
2023/02/19 05:26:47;;;;;;;3.20;1.53;;;17.10;67.10;;;;;;5090920;28;20185;-49
2023/02/19 05:29:19;;;;;;;3.80;1.57;;;17.10;67.00;;;;;;5080991;28;20646;-49
2023/02/19 05:31:47;;;;;;;4.00;1.63;;;17.10;67.00;;;;;;5088660;28;20566;-49
2023/02/19 05:34:18;;;;;;;7.47;1.93;;;17.10;67.00;;;;;;5091285;28;20189;-49
2023/02/19 05:36:50;;;;;;;4.67;1.50;;;17.10;66.90;;;;;;5091519;28;20182;-49
2023/02/19 05:39:20;;;;;;;4.93;1.70;;;17.10;66.90;;;;;;5090893;28;20216;-49
2023/02/19 05:41:52;;;;;;;4.07;1.70;;;17.10;66.90;;;;;;5081565;28;20213;-49
2023/02/19 05:44:24;;;;;;;2.60;1.50;;;17.10;66.90;;;;;;5086980;28;20614;-49
2023/02/19 05:46:56;;;;;;;3.53;1.83;;;17.10;66.90;;;;;;5091402;28;20197;-49
2023/02/19 05:49:26;;;;;;;5.53;1.73;;;17.10;66.90;;;;;;5088912;28;20212;-49
2023/02/19 05:51:58;;;;;;;4.03;2.00;;;17.10;66.90;;;;;;5083635;28;20276;-49
2023/02/19 05:54:31;;;;;;;5.43;1.87;;;17.10;66.80;;;;;;5089225;28;20206;-49
2023/02/19 05:56:59;;;;;;;5.03;1.20;;;17.10;66.70;;;;;;5090743;28;20590;-49
2023/02/19 05:59:31;;;;;;;5.30;1.57;;;17.10;66.70;;;;;;5090232;28;20212;-49
2023/02/19 06:02:02;;;;;;;5.13;2.00;;;17.10;66.70;;;;;;5089044;28;20217;-49
2023/02/19 06:04:33;;;;;;;4.73;1.60;;;17.10;66.70;;;;;;5086377;28;20296;-49
2023/02/19 06:07:04;;;;;;;4.70;1.50;;;17.10;66.70;;;;;;5089406;28;20654;-49
2023/02/19 06:09:36;;;;;;;4.87;2.00;;;17.00;66.50;;;;;;5090268;28;20205;-49
2023/02/19 06:12:03;;;;;;;3.70;1.37;;;17.10;66.50;;;;;;5088162;28;20193;-49
2023/02/19 06:14:32;;;;;;;4.10;1.70;;;17.10;66.50;;;;;;5089330;28;20201;-49
2023/02/19 06:17:02;;;;;;;4.47;2.07;;;17.10;66.50;;;;;;5086046;28;20221;-49
2023/02/19 06:19:32;;;;;;;5.67;1.90;;;17.00;66.40;;;;;;5090164;28;20212;-49
2023/02/19 06:22:02;;;;;;;7.67;2.00;;;17.00;66.40;;;;;;5082239;28;20238;-49
2023/02/19 06:24:36;;;;;;;3.83;1.70;;;17.00;66.40;;;;;;5064248;28;20192;-49
2023/02/19 06:27:07;;;;;;;4.87;1.67;;;17.00;66.40;;;;;;5053908;28;20742;-49
2023/02/19 06:29:40;;;;;;;5.63;2.17;;;17.00;66.30;;;;;;5046379;28;20217;-49
2023/02/19 06:32:10;;;;;;;5.60;2.10;;;17.00;66.20;;;;;;5075461;28;20795;-45
2023/02/19 06:34:43;;;;;;;5.80;1.77;;;17.00;66.30;;;;;;5071041;28;20677;-45
2023/02/19 06:37:13;;;;;;;5.10;1.90;;;17.10;66.90;;;;;;5070397;28;20224;-49
2023/02/19 06:39:56;;;;;;;3.87;1.33;;;17.00;66.20;;;;;;5064988;28;20289;-49
2023/02/19 06:42:24;;;;;;;4.07;1.70;;;17.00;66.20;;;;;;5078027;28;20522;-49
2023/02/19 06:44:56;;;;;;;6.73;2.10;;;17.00;66.20;;;;;;5069192;28;20251;-49
2023/02/19 06:47:31;;;;;;;7.00;1.90;;;17.00;66.20;;;;;;5074759;28;20284;-46
2023/02/19 06:50:01;;;;;;;3.43;1.67;;;17.00;66.20;;;;;;5065526;28;20201;-46
2023/02/19 06:52:43;;;;;;;6.60;2.20;;;17.00;66.20;;;;;;5063311;28;20328;-46
2023/02/19 06:55:14;;;;;;;3.93;1.40;;;17.00;66.20;;;;;;5068104;28;20265;-46
2023/02/19 06:57:43;;;;;;;3.73;1.50;;;17.00;66.20;;;;;;5050748;28;20193;-45
2023/02/19 07:00:21;;;;;;;3.17;1.60;;;17.00;66.20;;;;;;5068975;28;20255;-46
2023/02/19 07:02:55;;;;;;;3.60;1.83;;;17.00;66.10;;;;;;5057572;28;20190;-46
2023/02/19 07:05:37;;;;;;;4.63;1.80;;;17.00;66.20;;;;;;5061176;28;20667;-47
2023/02/19 07:08:05;;;;;;;5.47;2.53;;;17.00;66.20;;;;;;5051439;28;20879;-45
2023/02/19 07:10:35;;;;;;;4.27;1.63;;;17.00;66.10;;;;;;5068124;28;20194;-51
2023/02/19 07:13:07;;;;;;;6.37;1.80;;;17.00;66.20;;;;;;5066722;28;20202;-50
2023/02/19 07:15:40;;;;;;;3.80;1.53;;;17.00;66.10;;;;;;5068119;28;20544;-50
2023/02/19 07:18:09;;;;;;;4.93;1.77;;;17.00;66.10;;;;;;5048252;28;20206;-50
2023/02/19 07:20:38;;;;;;;4.07;1.47;;;17.00;66.10;;;;;;5066145;28;20210;-45
2023/02/19 07:23:08;;;;;;;4.13;2.00;;;17.00;66.00;;;;;;5081346;28;20320;-45
2023/02/19 07:25:38;;;;;;;6.07;2.23;;;17.00;65.90;;;;;;5090879;28;20201;-46
2023/02/19 07:28:28;;;;;;;5.40;1.80;;;17.00;66.00;;;;;;5079458;28;20666;-45
2023/02/19 07:31:02;;;;;;;5.93;2.10;;;17.00;65.90;;;;;;5095816;28;20184;-49
2023/02/19 07:33:35;;;;;;;5.70;2.20;;;17.00;66.00;;;;;;5071151;28;20193;-49
2023/02/19 07:36:10;;;;;;;5.67;1.70;;;17.00;65.90;;;;;;5087058;28;20209;-45
2023/02/19 07:38:56;;;;;;;6.67;2.20;;;17.00;65.90;;;;;;5090304;28;20201;-45
2023/02/19 07:41:26;;;;;;;4.37;1.87;;;17.00;65.90;;;;;;5071642;28;20248;-48
2023/02/19 07:43:54;;;;;;;6.47;2.10;;;17.00;66.00;;;;;;5070149;28;20188;-50
2023/02/19 07:46:25;;;;;;;6.20;2.13;;;17.00;65.90;;;;;;5074918;28;20194;-46
2023/02/19 07:48:54;;;;;;;4.93;1.70;;;17.00;65.90;;;;;;5092739;28;20609;-47
2023/02/19 07:51:26;;;;;;;3.97;1.70;;;17.00;65.90;;;;;;5088153;28;20272;-47
2023/02/19 07:53:58;;;;;;;4.83;2.10;;;17.00;65.90;;;;;;5077964;28;20923;-45
2023/02/19 07:56:28;;;;;;;4.10;1.50;;;17.00;65.90;;;;;;5086499;28;20196;-48
2023/02/19 07:58:59;;;;;;;5.23;2.10;;;17.00;65.80;;;;;;5091230;28;20710;-47
2023/02/19 08:04:25;;;;;;;5.33;2.13;;;17.00;65.80;;;;;;5081641;28;20618;-45
2023/02/19 08:06:54;;;;;;;5.90;2.23;;;17.00;65.80;;;;;;5085529;28;20204;-45
2023/02/19 08:09:24;;;;;;;5.33;2.20;;;17.00;65.80;;;;;;5083407;28;20267;-45
2023/02/19 08:14:44;;;;;;;5.60;2.37;;;17.00;65.60;;;;;;5082583;28;20780;-48
2023/02/19 08:17:17;;;;;;;4.33;2.13;;;17.00;65.70;;;;;;5081179;28;20209;-48
2023/02/19 08:19:49;;;;;;;5.17;2.50;;;17.00;65.60;;;;;;5086795;28;20189;-48
2023/02/19 08:22:17;;;;;;;5.27;2.13;;;17.00;65.70;;;;;;5079880;28;20233;-47
2023/02/19 08:24:45;;;;;;;5.33;1.93;;;17.00;65.70;;;;;;5073145;28;20194;-48
2023/02/19 08:27:17;;;;;;;3.53;1.93;;;17.00;65.60;;;;;;5075427;28;20196;-45
2023/02/19 08:29:52;;;;;;;4.03;2.00;;;17.00;65.60;;;;;;5064960;28;20202;-44
2023/02/19 08:32:24;;;;;;;5.17;1.83;;;17.00;65.60;;;;;;5067256;28;20184;-48
2023/02/19 08:34:53;;;;;;;6.03;2.60;;;17.00;65.60;;;;;;5083533;28;20196;-48
2023/02/19 08:37:24;;;;;;;5.87;2.80;;;17.00;65.50;;;;;;5081020;28;20185;-44
2023/02/19 08:39:53;;;;;;;5.93;2.33;;;17.00;65.60;;;;;;5072756;28;20221;-44
2023/02/19 08:42:24;;;;;;;4.70;2.07;;;17.00;65.60;;;;;;5068596;28;20760;-48
2023/02/19 08:44:53;;;;;;;4.37;2.30;;;17.00;65.90;;;;;;5078970;28;20198;-47
2023/02/19 08:47:22;;;;;;;6.10;2.33;;;17.00;65.50;;;;;;5087418;28;20225;-44
2023/02/19 08:49:58;;;;;;;7.53;2.90;;;17.00;65.50;;;;;;5079823;28;20277;-45
2023/02/19 08:52:29;;;;;;;4.77;2.00;;;17.00;65.50;;;;;;5075544;28;20209;-47
2023/02/19 08:55:01;;;;;;;4.60;2.07;;;17.00;65.50;;;;;;5079168;28;20197;-47
2023/02/19 08:57:37;;;;;;;4.73;2.10;;;17.00;65.50;;;;;;5077277;28;20888;-50
2023/02/19 09:00:15;;;;;;;5.17;2.27;;;17.00;65.50;;;;;;5075540;28;20289;-50
2023/02/19 09:02:44;;;;;;;4.00;2.10;;;17.00;65.50;;;;;;5088454;28;20188;-50
2023/02/19 09:05:15;;;;;;;5.50;2.10;;;17.10;65.50;;;;;;5085758;28;20217;-44
2023/02/19 09:07:46;;;;;;;5.10;2.10;;;17.00;65.40;;;;;;5081255;28;20590;-46
2023/02/19 09:10:20;;;;;;;4.77;2.23;;;17.10;65.50;;;;;;5072787;28;20210;-48
2023/02/19 09:12:51;;;;;;;3.40;2.00;;;17.00;65.50;;;;;;5078510;28;20193;-51
2023/02/19 09:15:23;;;;;;;6.10;2.20;;;17.00;65.60;;;;;;5076663;28;20197;-48
2023/02/19 09:17:52;;;;;;;5.03;2.13;;;17.10;65.60;;;;;;5052920;28;20205;-48
2023/02/19 09:20:21;;;;;;;2.83;2.20;;;17.00;65.50;;;;;;5085872;28;20212;-44
2023/02/19 09:22:57;;;;;;;3.70;2.10;;;17.00;65.80;;;;;;5076548;28;20221;-44
2023/02/19 09:25:39;;;;;;;4.97;2.57;;;17.10;65.50;;;;;;5053375;28;20289;-44
2023/02/19 09:28:11;;;;;;;4.10;2.40;;;17.10;65.70;;;;;;5059786;28;20233;-46
2023/02/19 09:30:43;;;;;;;4.87;2.17;;;17.00;65.50;;;;;;5050916;28;20292;-45
2023/02/19 09:33:13;;;;;;;5.63;2.00;;;17.00;65.60;;;;;;5069390;28;20229;-45
2023/02/19 09:35:45;;;;;;;5.87;2.43;;;17.10;65.60;;;;;;5074706;28;20189;-50
2023/02/19 09:38:17;;;;;;;3.03;1.70;;;17.10;65.80;;;;;;5074108;28;20201;-48
2023/02/19 09:40:48;;;;;;;4.30;2.50;;;17.10;65.50;;;;;;5065268;28;20248;-50
2023/02/19 09:43:34;;;;;;;4.37;2.07;;;17.10;65.70;;;;;;5072741;28;20190;-50
2023/02/19 09:46:42;;;;;;;3.83;2.40;;;17.10;65.60;;;;;;5055494;28;20193;-50
2023/02/19 09:49:48;;;;;;;3.67;1.83;;;17.10;65.50;;;;;;5059252;28;20213;-50
2023/02/19 09:52:24;;;;;;;3.90;2.00;;;17.10;65.40;;;;;;5052785;28;20536;-49
2023/02/19 09:54:56;;;;;;;5.67;2.40;;;17.10;65.80;;;;;;5048400;28;20227;-49
2023/02/19 09:57:29;;;;;;;4.87;2.27;;;17.10;66.20;;;;;;5033742;28;20198;-49
2023/02/19 10:00:13;;;;;;;4.13;2.27;;;17.10;65.90;;;;;;5046677;28;20726;-49
2023/02/19 10:02:42;;;;;;;4.27;2.23;;;17.10;65.80;;;;;;5050057;28;20197;-49
2023/02/19 10:05:21;;;;;;;4.00;2.00;;;17.10;65.80;;;;;;5063157;28;20213;-49
2023/02/19 10:07:54;;;;;;;7.87;2.97;;;17.10;65.80;;;;;;5048135;28;20193;-49
2023/02/19 10:10:34;;;;;;;3.63;2.10;;;17.10;66.10;;;;;;5037647;28;20229;-49
2023/02/19 10:14:03;;;;;;;7.60;2.17;;;17.10;66.10;;;;;;5065107;28;20259;-49
2023/02/19 10:16:39;;;;;;;7.30;2.30;;;17.10;68.00;;;;;;5000132;28;20900;-45
2023/02/19 10:19:15;;;;;;;5.37;2.77;;;17.10;68.10;;;;;;4999402;28;20298;-45
2023/02/19 10:21:45;;;;;;;4.33;2.70;;;17.10;68.00;;;;;;5062621;28;20224;-49
2023/02/19 10:24:27;;;;;;;8.70;2.47;;;17.10;68.20;;;;;;5064931;28;20194;-49
2023/02/19 10:26:56;;;;;;;6.00;2.57;;;17.10;67.80;;;;;;5067194;28;20201;-48
2023/02/19 10:29:27;;;;;;;5.93;3.20;;;17.10;67.40;;;;;;5046798;28;20504;-48
2023/02/19 10:32:22;;;;;;;6.83;3.00;;;17.10;67.70;;;;;;5064400;28;20886;-48
2023/02/19 10:35:12;;;;;;;4.77;2.60;;;17.10;68.00;;;;;;5064806;28;20194;-49
2023/02/19 10:37:51;;;;;;;3.23;2.20;;;17.10;67.60;;;;;;5062784;28;20880;-45
2023/02/19 10:40:26;;;;;;;4.33;2.73;;;17.10;68.00;;;;;;5040807;28;20217;-45
2023/02/19 10:43:00;;;;;;;5.67;3.27;;;17.10;67.70;;;;;;5063537;28;20317;-45
2023/02/19 10:45:54;;;;;;;5.27;2.97;;;17.10;68.60;;;;;;5051329;28;20238;-45
2023/02/19 10:48:41;;;;;;;6.13;2.77;;;17.10;67.80;;;;;;5066536;28;20250;-44
2023/02/19 10:51:19;;;;;;;6.77;2.97;;;17.10;67.70;;;;;;5072293;28;20282;-44
2023/02/19 10:54:07;;;;;;;8.17;2.60;;;17.10;68.00;;;;;;5047491;28;20630;-44
2023/02/19 10:56:37;;;;;;;4.77;2.23;;;17.10;68.10;;;;;;5052609;28;20198;-50
2023/02/19 10:59:30;;;;;;;3.67;2.30;;;17.10;67.70;;;;;;5064875;28;20201;-50
2023/02/19 11:02:17;;;;;;;3.23;2.20;;;17.20;68.80;;;;;;5059616;28;20209;-49
2023/02/19 11:05:10;;;;;;;3.30;2.43;;;17.20;69.20;;;;;;5060882;28;20202;-49
2023/02/19 11:07:58;;;;;;;8.50;2.40;;;17.30;69.00;;;;;;5065626;28;20522;-48
2023/02/19 11:10:35;;;;;;;7.33;2.37;;;17.40;68.70;;;;;;5068269;28;20192;-47
2023/02/19 11:13:25;;;;;;;4.87;2.40;;;17.40;68.20;;;;;;5031936;28;20196;-48
2023/02/19 11:15:56;;;;;;;3.33;2.50;;;17.40;67.80;;;;;;5047495;28;20193;-45
2023/02/19 11:18:32;;;;;;;4.20;2.20;;;17.50;67.40;;;;;;5071341;28;20197;-45
2023/02/19 11:21:06;;;;;;;4.37;2.13;;;17.40;67.00;;;;;;5063741;28;20217;-48
2023/02/19 11:23:46;;;;;;;2.67;2.33;;;17.40;66.50;;;;;;5055359;28;20317;-48
2023/02/19 11:26:21;;;;;;;145.93;30.93;;;17.40;66.50;;;;;;5067936;28;20193;-48
2023/02/19 11:28:59;;;;;;;216.83;44.73;;;17.40;67.40;;;;;;5047340;28;20197;-48
2023/02/19 11:31:32;;;;;;;185.10;39.17;;;17.40;67.80;;;;;;5051031;28;20209;-44
2023/02/19 11:34:04;;;;;;;185.77;39.00;;;17.50;67.60;;;;;;5066140;28;20259;-44
2023/02/19 11:36:41;;;;;;;146.17;32.27;;;17.40;67.40;;;;;;5085889;28;20685;-50
2023/02/19 11:39:29;;;;;;;153.50;38.03;;;17.40;67.20;;;;;;5078238;28;20207;-48
2023/02/19 11:42:25;;;;;;;135.97;35.30;;;17.40;66.90;;;;;;5075148;28;20527;-49
2023/02/19 11:45:12;;;;;;;115.07;27.17;;;17.40;66.70;;;;;;5084667;28;20192;-50
2023/02/19 11:48:19;;;;;;;90.23;23.27;;;17.40;67.50;;;;;;5082772;28;20189;-44
2023/02/19 11:51:07;;;;;;;95.13;25.30;;;17.40;67.00;;;;;;5076937;28;20205;-44
2023/02/19 11:53:46;;;;;;;85.77;21.90;;;17.40;67.10;;;;;;5080459;28;20573;-44
2023/02/19 11:56:32;;;;;;;74.67;20.27;;;17.40;67.00;;;;;;5070609;28;20213;-44
2023/02/19 11:59:32;;;;;;;75.80;19.80;;;17.40;66.50;;;;;;5073554;28;20192;-44
2023/02/19 12:02:29;;;;;;;67.60;18.27;;;17.40;66.40;;;;;;5076910;28;20657;-44
2023/02/19 12:05:16;;;;;;;63.83;17.87;;;17.40;66.20;;;;;;5076454;28;20324;-44
2023/02/19 12:08:29;;;;;;;54.37;16.57;;;17.40;66.10;;;;;;5079648;28;20198;-44
2023/02/19 12:11:26;;;;;;;54.07;17.23;;;17.40;66.00;;;;;;5085805;28;20208;-44
2023/02/19 12:14:18;;;;;;;50.90;14.93;;;17.40;65.90;;;;;;5069850;28;20197;-44
2023/02/19 12:17:25;;;;;;;53.40;14.57;;;17.40;65.90;;;;;;5077917;28;20194;-44
2023/02/19 12:20:13;;;;;;;43.07;13.93;;;17.40;65.70;;;;;;5064586;28;20204;-44
2023/02/19 12:22:53;;;;;;;36.60;13.00;;;17.40;65.70;;;;;;5083574;28;20254;-48
2023/02/19 12:25:51;;;;;;;35.53;13.17;;;17.40;65.70;;;;;;5077467;28;20192;-44
2023/02/19 12:28:43;;;;;;;37.23;13.40;;;17.30;65.60;;;;;;5087992;28;20185;-44
2023/02/19 12:31:43;;;;;;;36.50;13.37;;;17.40;65.60;;;;;;5086082;28;20902;-47
2023/02/19 12:34:26;;;;;;;33.57;12.03;;;17.30;65.50;;;;;;5082899;28;20308;-47
2023/02/19 12:37:10;;;;;;;31.13;10.60;;;17.30;65.50;;;;;;5061779;28;20189;-44
2023/02/19 12:40:09;;;;;;;27.73;11.20;;;17.30;65.40;;;;;;5077537;28;20181;-44
2023/02/19 12:43:04;;;;;;;27.57;10.20;;;17.30;65.20;;;;;;5063853;28;20697;-47
2023/02/19 12:46:00;;;;;;;25.13;9.23;;;17.30;65.30;;;;;;5074055;28;20307;-44
2023/02/19 12:48:54;;;;;;;26.70;9.37;;;17.30;65.40;;;;;;5090414;28;20213;-44
2023/02/19 12:52:06;;;;;;;25.57;9.00;;;17.30;65.20;;;;;;5075095;28;20185;-48
2023/02/19 12:54:47;;;;;;;21.60;8.43;;;17.30;65.00;;;;;;5005404;28;20624;-48
2023/02/19 12:57:29;;;;;;;20.43;7.30;;;17.30;64.90;;;;;;5008632;28;20227;-50
2023/02/19 13:00:19;;;;;;;18.80;7.67;;;17.30;64.90;;;;;;5074366;28;20786;-50
2023/02/19 13:03:11;;;;;;;19.50;8.43;;;17.30;65.50;;;;;;5090649;28;20213;-44
2023/02/19 13:06:08;;;;;;;17.97;7.30;;;17.30;64.80;;;;;;5072993;28;20185;-44
2023/02/19 13:09:02;;;;;;;20.17;7.13;;;17.30;64.80;;;;;;5091125;28;20212;-46
2023/02/19 13:11:43;;;;;;;14.53;7.20;;;17.30;64.70;;;;;;5079848;28;20555;-47
2023/02/19 13:14:39;;;;;;;17.17;6.80;;;17.30;64.70;;;;;;5086724;28;20625;-45
2023/02/19 13:17:34;;;;;;;15.27;6.90;;;17.30;64.60;;;;;;5083042;28;20205;-47
2023/02/19 13:20:34;;;;;;;14.20;6.77;;;17.30;64.60;;;;;;5061561;28;20220;-45
2023/02/19 13:27:00;;;;;;;11.80;5.67;;;17.30;64.50;;;;;;5083785;28;20197;-44
2023/02/19 13:29:51;;;;;;;13.20;6.47;;;17.30;64.40;;;;;;5089952;28;20625;-44
2023/02/19 13:32:57;;;;;;;10.53;5.63;;;17.30;64.50;;;;;;5083790;28;20221;-51
2023/02/19 13:35:48;;;;;;;9.43;5.13;;;17.30;64.30;;;;;;5083408;28;20557;-46
2023/02/19 13:38:20;;;;;;;11.73;5.77;;;17.30;64.30;;;;;;5071930;28;20263;-44
2023/02/19 13:41:00;;;;;;;11.00;5.37;;;17.20;64.30;;;;;;5090399;28;20201;-46
2023/02/19 13:43:42;;;;;;;8.77;4.47;;;17.30;64.20;;;;;;5072151;28;20209;-44
2023/02/19 13:46:16;;;;;;;8.30;4.40;;;17.30;64.20;;;;;;5073715;28;20616;-48
2023/02/19 13:49:09;;;;;;;7.67;4.60;;;17.30;64.20;;;;;;5073881;28;20201;-48
2023/02/19 13:51:48;;;;;;;8.63;4.70;;;17.30;64.20;;;;;;5092585;28;20185;-44
2023/02/19 13:54:21;;;;;;;7.97;4.10;;;17.30;64.10;;;;;;5044847;28;20252;-44
2023/02/19 13:56:49;;;;;;;11.27;4.77;;;17.20;64.10;;;;;;5057350;28;20190;-47
2023/02/19 13:59:39;;;;;;;6.90;3.70;;;17.30;64.10;;;;;;5072072;28;20189;-48
2023/02/19 14:02:29;;;;;;;6.90;4.30;;;17.30;64.00;;;;;;5076554;28;20228;-46
2023/02/19 14:05:14;;;;;;;7.87;3.87;;;17.30;64.00;;;;;;5104495;28;20200;-44
2023/02/19 14:07:56;;;;;;;6.67;3.90;;;17.20;63.90;;;;;;5077658;28;20205;-50
2023/02/19 14:10:56;;;;;;;7.93;3.77;;;17.30;64.00;;;;;;5052888;28;20595;-47